Terminal Aerodrome Forecast
Issued by NWS

Home | Current Version | Previous Version | Text Only | Print | Product List | Glossary On
Versions: 1 2 3 4 5 6 7 8 9 10 11 12 13
000
FTUS42 KTBW 270531
TAFPIE
TAF
KPIE 270531Z 2706/2806 12005KT P6SM FEW050
     FM271600 05007KT P6SM SCT035
     FM271900 28008KT P6SM FEW050
     FM280000 30006KT P6SM SCT060
     FM280300 06005KT P6SM FEW060=

USA.gov is the U.S. government's official web portal to all federal, state and local government web resources and services.